Quick Links (Output Below):   Max & Min Temps   /   Climate Reports   /   Zone Forecasts
River Forecasts   /   Forestry Forecasts   /   Aviation Forecasts   /   Radars   /   Features

Terminal Aerodrome Forecast (Highfill)

Pick a Site:
Arkadelphia | El Dorado | Fayetteville | Fort Smith | Harrison | Highfill | Hot Springs | Jonesboro
Little Rock | Monticello | Mountain Home | Pine Bluff | Texarkana
 Forecast 

KXNA 021137Z 0212/0312 VRB04KT P6SM FEW250
     FM021500 22010KT P6SM SCT100
     FM030200 VRB02KT P6SM FEW120=


 Latest METARs (Observations) 
How to Decode METARs
12Z KXNA 021153Z 00000KT 9SM CLR 20/19 A3000 RMK AO2 SLP145 T02000194
         10217 20194 53001 $
         
11Z KXNA 021053Z 00000KT 7SM CLR 19/19 A3000 RMK AO2 SLP143 T01940189
         $
         
10Z KXNA 020953Z COR 12003KT 8SM CLR 21/20 A3000 RMK AO2 SLP143
         T02060200 $
         
09Z KXNA 020853Z AUTO 00000KT 9SM CLR 21/20 A3000 RMK AO2 SLP142
         T02110200 56008 $
         
08Z KXNA 020753Z AUTO 20003KT 10SM CLR 21/20 A3001 RMK AO2 SLP144
         T02060200 $
         
07Z KXNA 020653Z AUTO 00000KT 10SM CLR 21/19 A3002 RMK AO2 SLP147
         T02060194 $
         
06Z KXNA 020553Z AUTO 00000KT 10SM CLR 22/20 A3003 RMK AO2 SLP150
         T02170200 10289 20211 403390172 50004 $
         
05Z KXNA 020453Z AUTO 00000KT 10SM CLR 22/21 A3003 RMK AO2 SLP153
         T02220206 $
         
04Z KXNA 020353Z AUTO 26005KT 10SM CLR 22/20 A3002 RMK AO2 SLP149
         T02220200 $
         
03Z KXNA 020253Z 00000KT 10SM CLR 24/21 A3001 RMK AO2 SLP146 T02440206
         53001 $
         
***** Today's Observations (Above) *****


Back to Main Page
http://www.srh.noaa.gov/lzk/qfcst.php

USA.gov is the U.S. government's official web portal to all federal, state and local government web resources and services.